Weather at Matheson Island Airport

Public forecast

Using degrees Celsius for public forecast. Weather courtesy of forecast.io.

Closest aviation weather report (METAR) to Matheson Island Airport

Report is more than 6 hours old.

Closest report is Berens River Airport, 37.8 nm (69.9 km) N. Retrieved 2020/11/23 22:00 UTC (8 hours ago):

CYBV 232200Z 12007KT 15SM BKN140 M09/M14 A3012 RMK AS7 SNW CVR/TRACE LOOSE/LAST STFD OBS/NEXT 241300UTC SLP221

Closest aviation forecast (TAF) to Matheson Island Airport

Closest forecast is Winnipeg / James Armstrong Richardson International Airport, 110.0 nm (203.8 km) S. Retrieved 2020-11-24 00:45 UTC (5 hours ago):

TAF TAF CYWG 232341Z 2400/2424 12015KT P6SM SCT160 BKN220 FM240500 16015KT P6SM BKN020 OVC060 FM240800 16012G22KT 4SM -SN BR BKN008 OVC015 TEMPO 2408/2416 11/2SM -SN BR OVC006 FM241600 24008KT P6SM -SN OVC008 RMK NXT FCST BY 240600Z